sensor_id;sensor_type;location;lat;lon;timestamp;temperature;humidity
1301;DHT22;59099;48.806;9.160;2022-12-07T00:01:16;4.50;99.90
1301;DHT22;59099;48.806;9.160;2022-12-07T00:03:44;4.60;99.90
1301;DHT22;59099;48.806;9.160;2022-12-07T00:06:11;4.60;99.90
1301;DHT22;59099;48.806;9.160;2022-12-07T00:08:38;4.60;99.90
1301;DHT22;59099;48.806;9.160;2022-12-07T00:11:08;4.60;99.90
1301;DHT22;59099;48.806;9.160;2022-12-07T00:13:35;4.60;99.90
1301;DHT22;59099;48.806;9.160;2022-12-07T00:16:14;4.60;99.90
1301;DHT22;59099;48.806;9.160;2022-12-07T00:18:41;4.60;99.90
1301;DHT22;59099;48.806;9.160;2022-12-07T00:21:13;4.60;99.90
1301;DHT22;59099;48.806;9.160;2022-12-07T00:23:40;4.60;99.90
1301;DHT22;59099;48.806;9.160;2022-12-07T00:26:14;4.60;99.90
1301;DHT22;59099;48.806;9.160;2022-12-07T00:28:41;4.50;99.90
1301;DHT22;59099;48.806;9.160;2022-12-07T00:31:12;4.60;99.90
1301;DHT22;59099;48.806;9.160;2022-12-07T00:33:38;4.60;99.90
1301;DHT22;59099;48.806;9.160;2022-12-07T00:36:07;4.50;99.90
1301;DHT22;59099;48.806;9.160;2022-12-07T00:38:34;4.50;99.90
1301;DHT22;59099;48.806;9.160;2022-12-07T00:41:06;4.50;99.90
1301;DHT22;59099;48.806;9.160;2022-12-07T00:43:32;4.50;99.90
1301;DHT22;59099;48.806;9.160;2022-12-07T00:45:58;4.40;99.90
1301;DHT22;59099;48.806;9.160;2022-12-07T00:48:24;4.40;99.90
1301;DHT22;59099;48.806;9.160;2022-12-07T00:50:51;4.40;99.90
1301;DHT22;59099;48.806;9.160;2022-12-07T00:53:17;4.50;99.90
1301;DHT22;59099;48.806;9.160;2022-12-07T00:55:43;4.50;99.90
1301;DHT22;59099;48.806;9.160;2022-12-07T00:58:09;4.50;99.90
1301;DHT22;59099;48.806;9.160;2022-12-07T01:00:37;4.50;99.90
1301;DHT22;59099;48.806;9.160;2022-12-07T01:03:05;4.40;99.90
1301;DHT22;59099;48.806;9.160;2022-12-07T01:05:31;4.40;99.90
1301;DHT22;59099;48.806;9.160;2022-12-07T01:07:56;4.40;99.90
1301;DHT22;59099;48.806;9.160;2022-12-07T01:10:22;4.50;99.90
1301;DHT22;59099;48.806;9.160;2022-12-07T01:12:48;4.40;99.90
1301;DHT22;59099;48.806;9.160;2022-12-07T01:15:14;4.40;99.90
1301;DHT22;59099;48.806;9.160;2022-12-07T01:17:39;4.40;99.90
1301;DHT22;59099;48.806;9.160;2022-12-07T01:20:06;4.40;99.90
1301;DHT22;59099;48.806;9.160;2022-12-07T01:22:40;4.40;99.90
1301;DHT22;59099;48.806;9.160;2022-12-07T01:25:07;4.50;99.90
1301;DHT22;59099;48.806;9.160;2022-12-07T01:27:34;4.50;99.90
1301;DHT22;59099;48.806;9.160;2022-12-07T01:30:00;4.40;99.90
1301;DHT22;59099;48.806;9.160;2022-12-07T01:32:26;4.40;99.90
1301;DHT22;59099;48.806;9.160;2022-12-07T01:34:52;4.50;99.90
1301;DHT22;59099;48.806;9.160;2022-12-07T01:37:18;4.40;99.90
1301;DHT22;59099;48.806;9.160;2022-12-07T01:39:44;4.50;99.90
1301;DHT22;59099;48.806;9.160;2022-12-07T01:42:11;4.40;99.90
1301;DHT22;59099;48.806;9.160;2022-12-07T01:47:40;4.30;99.90
1301;DHT22;59099;48.806;9.160;2022-12-07T01:50:07;4.30;99.90
1301;DHT22;59099;48.806;9.160;2022-12-07T01:52:33;4.30;99.90
1301;DHT22;59099;48.806;9.160;2022-12-07T01:55:07;4.40;99.90
1301;DHT22;59099;48.806;9.160;2022-12-07T01:57:41;4.40;99.90
1301;DHT22;59099;48.806;9.160;2022-12-07T02:00:08;4.40;99.90
1301;DHT22;59099;48.806;9.160;2022-12-07T02:02:55;4.50;99.90
1301;DHT22;59099;48.806;9.160;2022-12-07T02:05:24;4.50;99.90
1301;DHT22;59099;48.806;9.160;2022-12-07T02:07:53;4.40;99.90
1301;DHT22;59099;48.806;9.160;2022-12-07T02:12:52;4.40;99.90
1301;DHT22;59099;48.806;9.160;2022-12-07T02:15:20;4.40;99.90
1301;DHT22;59099;48.806;9.160;2022-12-07T02:23:39;4.40;99.90
1301;DHT22;59099;48.806;9.160;2022-12-07T02:31:38;4.40;99.90
1301;DHT22;59099;48.806;9.160;2022-12-07T02:34:29;4.30;99.90
1301;DHT22;59099;48.806;9.160;2022-12-07T02:36:59;4.30;99.90
1301;DHT22;59099;48.806;9.160;2022-12-07T02:39:51;4.40;99.90
1301;DHT22;59099;48.806;9.160;2022-12-07T02:42:25;4.30;99.90
1301;DHT22;59099;48.806;9.160;2022-12-07T02:44:52;4.30;99.90
1301;DHT22;59099;48.806;9.160;2022-12-07T02:47:20;4.30;99.90
1301;DHT22;59099;48.806;9.160;2022-12-07T02:49:47;4.30;99.90
1301;DHT22;59099;48.806;9.160;2022-12-07T02:52:14;4.30;99.90
1301;DHT22;59099;48.806;9.160;2022-12-07T02:54:40;4.30;99.90
1301;DHT22;59099;48.806;9.160;2022-12-07T03:00:05;4.30;99.90
1301;DHT22;59099;48.806;9.160;2022-12-07T03:02:57;4.40;99.90
1301;DHT22;59099;48.806;9.160;2022-12-07T03:11:10;4.30;99.90
1301;DHT22;59099;48.806;9.160;2022-12-07T03:18:40;4.20;99.90
1301;DHT22;59099;48.806;9.160;2022-12-07T03:21:13;4.20;99.90
1301;DHT22;59099;48.806;9.160;2022-12-07T03:23:40;4.20;99.90
1301;DHT22;59099;48.806;9.160;2022-12-07T03:26:11;4.10;99.90
1301;DHT22;59099;48.806;9.160;2022-12-07T03:28:44;4.10;99.90
1301;DHT22;59099;48.806;9.160;2022-12-07T03:31:26;4.10;99.90
1301;DHT22;59099;48.806;9.160;2022-12-07T03:34:13;4.20;99.90
1301;DHT22;59099;48.806;9.160;2022-12-07T03:37:04;4.20;99.90
1301;DHT22;59099;48.806;9.160;2022-12-07T03:42:32;4.00;99.90
1301;DHT22;59099;48.806;9.160;2022-12-07T03:44:59;4.00;99.90
1301;DHT22;59099;48.806;9.160;2022-12-07T03:47:35;4.00;99.90
1301;DHT22;59099;48.806;9.160;2022-12-07T03:50:35;4.00;99.90
1301;DHT22;59099;48.806;9.160;2022-12-07T03:53:51;4.00;99.90
1301;DHT22;59099;48.806;9.160;2022-12-07T03:55:52;4.00;99.90
1301;DHT22;59099;48.806;9.160;2022-12-07T03:58:20;4.00;99.90
1301;DHT22;59099;48.806;9.160;2022-12-07T04:00:49;3.80;99.90
1301;DHT22;59099;48.806;9.160;2022-12-07T04:03:15;3.90;99.90
1301;DHT22;59099;48.806;9.160;2022-12-07T04:05:42;3.80;99.90
1301;DHT22;59099;48.806;9.160;2022-12-07T04:08:08;3.80;99.90
1301;DHT22;59099;48.806;9.160;2022-12-07T04:10:34;3.80;99.90
1301;DHT22;59099;48.806;9.160;2022-12-07T04:13:00;3.70;99.90
1301;DHT22;59099;48.806;9.160;2022-12-07T04:15:26;3.70;99.90
1301;DHT22;59099;48.806;9.160;2022-12-07T04:17:51;3.70;99.90
1301;DHT22;59099;48.806;9.160;2022-12-07T04:20:17;3.70;99.90
1301;DHT22;59099;48.806;9.160;2022-12-07T04:22:43;3.70;99.90
1301;DHT22;59099;48.806;9.160;2022-12-07T04:25:09;3.60;99.90
1301;DHT22;59099;48.806;9.160;2022-12-07T04:27:35;3.50;99.90
1301;DHT22;59099;48.806;9.160;2022-12-07T04:30:01;3.50;99.90
1301;DHT22;59099;48.806;9.160;2022-12-07T04:32:26;3.50;99.90
1301;DHT22;59099;48.806;9.160;2022-12-07T04:34:52;3.50;99.90
1301;DHT22;59099;48.806;9.160;2022-12-07T04:37:18;3.60;99.90
1301;DHT22;59099;48.806;9.160;2022-12-07T04:39:45;3.60;99.90
1301;DHT22;59099;48.806;9.160;2022-12-07T04:42:11;3.60;99.90
1301;DHT22;59099;48.806;9.160;2022-12-07T04:44:38;3.70;99.90
1301;DHT22;59099;48.806;9.160;2022-12-07T04:47:04;3.80;99.90
1301;DHT22;59099;48.806;9.160;2022-12-07T04:49:30;3.70;99.90
1301;DHT22;59099;48.806;9.160;2022-12-07T04:51:56;3.70;99.90
1301;DHT22;59099;48.806;9.160;2022-12-07T04:54:22;3.70;99.90
1301;DHT22;59099;48.806;9.160;2022-12-07T04:56:48;3.70;99.90
1301;DHT22;59099;48.806;9.160;2022-12-07T04:59:15;3.70;99.90
1301;DHT22;59099;48.806;9.160;2022-12-07T05:01:41;3.70;99.90
1301;DHT22;59099;48.806;9.160;2022-12-07T05:04:07;3.70;99.90
1301;DHT22;59099;48.806;9.160;2022-12-07T05:06:33;3.70;99.90
1301;DHT22;59099;48.806;9.160;2022-12-07T05:08:59;3.70;99.90
1301;DHT22;59099;48.806;9.160;2022-12-07T05:11:25;3.60;99.90
1301;DHT22;59099;48.806;9.160;2022-12-07T05:16:41;3.60;99.90
1301;DHT22;59099;48.806;9.160;2022-12-07T05:19:08;3.50;99.90
1301;DHT22;59099;48.806;9.160;2022-12-07T05:21:34;3.40;99.90
1301;DHT22;59099;48.806;9.160;2022-12-07T05:24:00;3.40;99.90
1301;DHT22;59099;48.806;9.160;2022-12-07T05:26:25;3.40;99.90
1301;DHT22;59099;48.806;9.160;2022-12-07T05:28:55;3.30;99.90
1301;DHT22;59099;48.806;9.160;2022-12-07T05:31:22;3.20;99.90
1301;DHT22;59099;48.806;9.160;2022-12-07T05:33:49;3.20;99.90
1301;DHT22;59099;48.806;9.160;2022-12-07T05:36:15;3.10;99.90
1301;DHT22;59099;48.806;9.160;2022-12-07T05:38:40;3.10;99.90
1301;DHT22;59099;48.806;9.160;2022-12-07T05:41:07;3.00;99.90
1301;DHT22;59099;48.806;9.160;2022-12-07T05:43:54;2.90;99.90
1301;DHT22;59099;48.806;9.160;2022-12-07T05:46:20;2.90;99.90
1301;DHT22;59099;48.806;9.160;2022-12-07T05:48:46;2.90;99.90
1301;DHT22;59099;48.806;9.160;2022-12-07T05:51:11;2.90;99.90
1301;DHT22;59099;48.806;9.160;2022-12-07T05:53:37;3.00;99.90
1301;DHT22;59099;48.806;9.160;2022-12-07T05:56:03;3.00;99.90
1301;DHT22;59099;48.806;9.160;2022-12-07T05:58:28;3.00;99.90
1301;DHT22;59099;48.806;9.160;2022-12-07T06:01:13;3.10;99.90
1301;DHT22;59099;48.806;9.160;2022-12-07T06:03:38;3.20;99.90
1301;DHT22;59099;48.806;9.160;2022-12-07T06:06:04;3.40;99.90
1301;DHT22;59099;48.806;9.160;2022-12-07T06:08:30;3.40;99.90
1301;DHT22;59099;48.806;9.160;2022-12-07T06:10:56;3.30;99.90
1301;DHT22;59099;48.806;9.160;2022-12-07T06:13:40;3.30;99.90
1301;DHT22;59099;48.806;9.160;2022-12-07T06:16:06;3.30;99.90
1301;DHT22;59099;48.806;9.160;2022-12-07T06:18:32;3.20;99.90
1301;DHT22;59099;48.806;9.160;2022-12-07T06:20:58;3.10;99.90
1301;DHT22;59099;48.806;9.160;2022-12-07T06:23:23;3.20;99.90
1301;DHT22;59099;48.806;9.160;2022-12-07T06:25:49;3.30;99.90
1301;DHT22;59099;48.806;9.160;2022-12-07T06:28:15;3.20;99.90
1301;DHT22;59099;48.806;9.160;2022-12-07T06:30:41;3.10;99.90
1301;DHT22;59099;48.806;9.160;2022-12-07T06:33:07;3.10;99.90
1301;DHT22;59099;48.806;9.160;2022-12-07T06:35:33;3.00;99.90
1301;DHT22;59099;48.806;9.160;2022-12-07T06:37:59;3.00;99.90
1301;DHT22;59099;48.806;9.160;2022-12-07T06:40:25;3.00;99.90
1301;DHT22;59099;48.806;9.160;2022-12-07T06:42:51;2.90;99.90
1301;DHT22;59099;48.806;9.160;2022-12-07T06:45:16;2.80;99.90
1301;DHT22;59099;48.806;9.160;2022-12-07T06:47:42;2.70;99.90
1301;DHT22;59099;48.806;9.160;2022-12-07T06:50:08;2.70;99.90
1301;DHT22;59099;48.806;9.160;2022-12-07T06:52:34;2.60;99.90
1301;DHT22;59099;48.806;9.160;2022-12-07T06:55:00;2.70;99.90
1301;DHT22;59099;48.806;9.160;2022-12-07T06:57:26;2.70;99.90
1301;DHT22;59099;48.806;9.160;2022-12-07T06:59:52;2.70;99.90
1301;DHT22;59099;48.806;9.160;2022-12-07T07:02:18;2.80;99.90
1301;DHT22;59099;48.806;9.160;2022-12-07T07:04:44;2.90;99.90
1301;DHT22;59099;48.806;9.160;2022-12-07T07:07:10;3.00;99.90
1301;DHT22;59099;48.806;9.160;2022-12-07T07:09:36;3.20;99.90
1301;DHT22;59099;48.806;9.160;2022-12-07T07:12:02;3.30;99.90
1301;DHT22;59099;48.806;9.160;2022-12-07T07:14:28;3.40;99.90
1301;DHT22;59099;48.806;9.160;2022-12-07T07:16:54;3.50;99.90
1301;DHT22;59099;48.806;9.160;2022-12-07T07:19:20;3.60;99.90
1301;DHT22;59099;48.806;9.160;2022-12-07T07:21:46;3.50;99.90
1301;DHT22;59099;48.806;9.160;2022-12-07T07:24:12;3.60;99.90
1301;DHT22;59099;48.806;9.160;2022-12-07T07:26:38;3.60;99.90
1301;DHT22;59099;48.806;9.160;2022-12-07T07:29:03;3.70;99.90
1301;DHT22;59099;48.806;9.160;2022-12-07T07:31:29;3.80;99.90
1301;DHT22;59099;48.806;9.160;2022-12-07T07:33:55;3.80;99.90
1301;DHT22;59099;48.806;9.160;2022-12-07T07:36:21;3.80;99.90
1301;DHT22;59099;48.806;9.160;2022-12-07T07:38:47;3.80;99.90
1301;DHT22;59099;48.806;9.160;2022-12-07T07:41:13;3.90;99.90
1301;DHT22;59099;48.806;9.160;2022-12-07T07:43:38;4.00;99.90
1301;DHT22;59099;48.806;9.160;2022-12-07T07:46:04;4.10;99.90
1301;DHT22;59099;48.806;9.160;2022-12-07T07:48:30;4.10;99.90
1301;DHT22;59099;48.806;9.160;2022-12-07T07:50:56;4.10;99.90
1301;DHT22;59099;48.806;9.160;2022-12-07T07:53:21;4.10;99.90
1301;DHT22;59099;48.806;9.160;2022-12-07T07:55:52;4.20;99.90
1301;DHT22;59099;48.806;9.160;2022-12-07T07:58:18;4.10;99.90
1301;DHT22;59099;48.806;9.160;2022-12-07T08:00:44;4.10;99.90
1301;DHT22;59099;48.806;9.160;2022-12-07T08:03:10;4.20;99.90
1301;DHT22;59099;48.806;9.160;2022-12-07T08:05:37;4.30;99.90
1301;DHT22;59099;48.806;9.160;2022-12-07T08:08:03;4.20;99.90
1301;DHT22;59099;48.806;9.160;2022-12-07T08:10:29;4.20;99.90
1301;DHT22;59099;48.806;9.160;2022-12-07T08:12:58;4.20;99.90
1301;DHT22;59099;48.806;9.160;2022-12-07T08:15:37;4.10;99.90
1301;DHT22;59099;48.806;9.160;2022-12-07T08:18:03;4.30;99.90
1301;DHT22;59099;48.806;9.160;2022-12-07T08:20:33;4.40;99.90
1301;DHT22;59099;48.806;9.160;2022-12-07T08:22:59;4.40;99.90
1301;DHT22;59099;48.806;9.160;2022-12-07T08:25:25;4.40;99.90
1301;DHT22;59099;48.806;9.160;2022-12-07T08:27:51;4.50;99.90
1301;DHT22;59099;48.806;9.160;2022-12-07T08:30:17;4.50;99.90
1301;DHT22;59099;48.806;9.160;2022-12-07T08:32:48;4.60;99.90
1301;DHT22;59099;48.806;9.160;2022-12-07T08:35:15;4.60;99.90
1301;DHT22;59099;48.806;9.160;2022-12-07T08:37:41;4.60;99.90
1301;DHT22;59099;48.806;9.160;2022-12-07T08:40:09;4.70;99.90
1301;DHT22;59099;48.806;9.160;2022-12-07T08:42:35;4.80;99.90
1301;DHT22;59099;48.806;9.160;2022-12-07T08:45:11;4.90;99.90
1301;DHT22;59099;48.806;9.160;2022-12-07T08:47:43;4.90;99.90
1301;DHT22;59099;48.806;9.160;2022-12-07T08:50:11;5.00;99.90
1301;DHT22;59099;48.806;9.160;2022-12-07T08:52:39;4.90;99.90
1301;DHT22;59099;48.806;9.160;2022-12-07T08:55:10;5.00;99.90
1301;DHT22;59099;48.806;9.160;2022-12-07T08:57:37;5.10;99.90
1301;DHT22;59099;48.806;9.160;2022-12-07T09:00:05;5.20;99.90
1301;DHT22;59099;48.806;9.160;2022-12-07T09:02:31;5.10;99.90
1301;DHT22;59099;48.806;9.160;2022-12-07T09:04:57;5.20;99.90
1301;DHT22;59099;48.806;9.160;2022-12-07T09:07:26;5.30;99.90
1301;DHT22;59099;48.806;9.160;2022-12-07T09:09:52;5.30;99.90
1301;DHT22;59099;48.806;9.160;2022-12-07T09:12:18;5.30;99.90
1301;DHT22;59099;48.806;9.160;2022-12-07T09:14:44;5.50;99.90
1301;DHT22;59099;48.806;9.160;2022-12-07T09:17:11;5.50;99.90
1301;DHT22;59099;48.806;9.160;2022-12-07T09:19:41;5.60;99.90
1301;DHT22;59099;48.806;9.160;2022-12-07T09:22:08;5.70;99.90
1301;DHT22;59099;48.806;9.160;2022-12-07T09:24:35;5.80;99.90
1301;DHT22;59099;48.806;9.160;2022-12-07T09:27:01;5.80;99.90
1301;DHT22;59099;48.806;9.160;2022-12-07T09:29:26;5.70;99.90
1301;DHT22;59099;48.806;9.160;2022-12-07T09:31:52;5.70;99.90
1301;DHT22;59099;48.806;9.160;2022-12-07T09:34:18;5.70;99.90
1301;DHT22;59099;48.806;9.160;2022-12-07T09:36:44;5.70;99.90
1301;DHT22;59099;48.806;9.160;2022-12-07T09:39:10;5.80;99.90
1301;DHT22;59099;48.806;9.160;2022-12-07T09:41:42;5.70;99.90
1301;DHT22;59099;48.806;9.160;2022-12-07T09:44:14;5.80;99.90
1301;DHT22;59099;48.806;9.160;2022-12-07T09:46:43;5.80;99.90
1301;DHT22;59099;48.806;9.160;2022-12-07T09:49:21;5.70;99.90
1301;DHT22;59099;48.806;9.160;2022-12-07T09:54:36;5.90;99.90
1301;DHT22;59099;48.806;9.160;2022-12-07T09:57:02;5.90;99.90
1301;DHT22;59099;48.806;9.160;2022-12-07T09:59:29;5.80;99.90
1301;DHT22;59099;48.806;9.160;2022-12-07T10:01:55;5.70;99.90
1301;DHT22;59099;48.806;9.160;2022-12-07T10:04:24;5.70;99.90
1301;DHT22;59099;48.806;9.160;2022-12-07T10:06:51;5.80;99.90
1301;DHT22;59099;48.806;9.160;2022-12-07T10:09:20;5.80;99.90
1301;DHT22;59099;48.806;9.160;2022-12-07T10:12:06;5.70;99.90
1301;DHT22;59099;48.806;9.160;2022-12-07T10:14:35;5.80;99.90
1301;DHT22;59099;48.806;9.160;2022-12-07T10:17:02;5.70;99.90
1301;DHT22;59099;48.806;9.160;2022-12-07T10:19:30;5.80;99.90
1301;DHT22;59099;48.806;9.160;2022-12-07T10:24:28;5.90;99.90
1301;DHT22;59099;48.806;9.160;2022-12-07T10:26:54;6.10;99.90
1301;DHT22;59099;48.806;9.160;2022-12-07T10:34:33;6.30;99.90
1301;DHT22;59099;48.806;9.160;2022-12-07T10:39:47;6.30;99.90
1301;DHT22;59099;48.806;9.160;2022-12-07T10:42:23;6.10;99.90
1301;DHT22;59099;48.806;9.160;2022-12-07T10:45:03;6.00;99.90
1301;DHT22;59099;48.806;9.160;2022-12-07T10:53:32;5.80;99.90
1301;DHT22;59099;48.806;9.160;2022-12-07T10:56:20;5.80;99.90
1301;DHT22;59099;48.806;9.160;2022-12-07T11:01:43;5.90;99.90
1301;DHT22;59099;48.806;9.160;2022-12-07T11:04:43;5.90;99.90
1301;DHT22;59099;48.806;9.160;2022-12-07T11:10:49;6.00;99.90
1301;DHT22;59099;48.806;9.160;2022-12-07T11:13:22;5.90;99.90
1301;DHT22;59099;48.806;9.160;2022-12-07T11:21:57;6.10;99.90
1301;DHT22;59099;48.806;9.160;2022-12-07T11:24:35;6.20;99.90
1301;DHT22;59099;48.806;9.160;2022-12-07T11:29:55;6.30;99.90
1301;DHT22;59099;48.806;9.160;2022-12-07T11:36:02;6.10;99.90
1301;DHT22;59099;48.806;9.160;2022-12-07T11:38:18;6.00;99.90
1301;DHT22;59099;48.806;9.160;2022-12-07T11:40:53;6.10;99.90
1301;DHT22;59099;48.806;9.160;2022-12-07T11:43:29;6.10;99.90
1301;DHT22;59099;48.806;9.160;2022-12-07T11:46:08;6.00;99.90
1301;DHT22;59099;48.806;9.160;2022-12-07T11:51:35;6.00;99.90
1301;DHT22;59099;48.806;9.160;2022-12-07T11:54:11;6.00;99.90
1301;DHT22;59099;48.806;9.160;2022-12-07T11:56:38;6.10;99.90
1301;DHT22;59099;48.806;9.160;2022-12-07T11:59:23;5.80;99.90
1301;DHT22;59099;48.806;9.160;2022-12-07T12:02:00;5.70;99.90
1301;DHT22;59099;48.806;9.160;2022-12-07T12:04:44;5.70;99.90
1301;DHT22;59099;48.806;9.160;2022-12-07T12:07:17;5.80;99.90
1301;DHT22;59099;48.806;9.160;2022-12-07T12:10:13;5.90;99.90
1301;DHT22;59099;48.806;9.160;2022-12-07T12:20:37;5.90;99.90
1301;DHT22;59099;48.806;9.160;2022-12-07T12:23:15;5.80;99.90
1301;DHT22;59099;48.806;9.160;2022-12-07T12:25:52;5.70;99.90
1301;DHT22;59099;48.806;9.160;2022-12-07T12:28:41;5.70;99.90
1301;DHT22;59099;48.806;9.160;2022-12-07T12:33:57;5.60;99.90
1301;DHT22;59099;48.806;9.160;2022-12-07T12:36:26;5.50;99.90
1301;DHT22;59099;48.806;9.160;2022-12-07T12:51:51;5.70;99.90
1301;DHT22;59099;48.806;9.160;2022-12-07T12:57:03;5.90;99.90
1301;DHT22;59099;48.806;9.160;2022-12-07T12:59:57;5.80;99.90
1301;DHT22;59099;48.806;9.160;2022-12-07T13:02:47;5.80;99.90
1301;DHT22;59099;48.806;9.160;2022-12-07T13:15:46;5.70;99.90
1301;DHT22;59099;48.806;9.160;2022-12-07T13:31:57;5.60;99.90
1301;DHT22;59099;48.806;9.160;2022-12-07T13:34:31;5.50;99.90
1301;DHT22;59099;48.806;9.160;2022-12-07T13:37:32;5.60;99.90
1301;DHT22;59099;48.806;9.160;2022-12-07T13:39:53;5.60;99.90
1301;DHT22;59099;48.806;9.160;2022-12-07T13:42:31;5.50;99.90
1301;DHT22;59099;48.806;9.160;2022-12-07T13:45:00;5.50;99.90
1301;DHT22;59099;48.806;9.160;2022-12-07T13:47:36;5.60;99.90
1301;DHT22;59099;48.806;9.160;2022-12-07T13:50:28;5.50;99.90
1301;DHT22;59099;48.806;9.160;2022-12-07T13:52:59;5.60;99.90
1301;DHT22;59099;48.806;9.160;2022-12-07T13:55:26;5.60;99.90
1301;DHT22;59099;48.806;9.160;2022-12-07T13:57:54;5.60;99.90
1301;DHT22;59099;48.806;9.160;2022-12-07T14:00:22;5.70;99.90
1301;DHT22;59099;48.806;9.160;2022-12-07T14:02:59;5.70;99.90
1301;DHT22;59099;48.806;9.160;2022-12-07T14:05:30;5.70;99.90
1301;DHT22;59099;48.806;9.160;2022-12-07T14:08:03;5.60;99.90
1301;DHT22;59099;48.806;9.160;2022-12-07T14:10:31;5.60;99.90
1301;DHT22;59099;48.806;9.160;2022-12-07T14:12:58;5.70;99.90
1301;DHT22;59099;48.806;9.160;2022-12-07T14:15:31;5.90;99.90
1301;DHT22;59099;48.806;9.160;2022-12-07T14:17:59;5.90;99.90
1301;DHT22;59099;48.806;9.160;2022-12-07T14:20:37;6.00;99.90
1301;DHT22;59099;48.806;9.160;2022-12-07T14:23:03;6.10;99.90
1301;DHT22;59099;48.806;9.160;2022-12-07T14:25:47;6.00;99.90
1301;DHT22;59099;48.806;9.160;2022-12-07T14:28:27;5.90;99.90
1301;DHT22;59099;48.806;9.160;2022-12-07T14:30:53;5.90;99.90
1301;DHT22;59099;48.806;9.160;2022-12-07T14:33:19;6.10;99.90
1301;DHT22;59099;48.806;9.160;2022-12-07T14:35:46;6.10;99.90
1301;DHT22;59099;48.806;9.160;2022-12-07T14:38:12;6.00;99.90
1301;DHT22;59099;48.806;9.160;2022-12-07T14:40:39;5.90;99.90
1301;DHT22;59099;48.806;9.160;2022-12-07T14:43:09;5.80;99.90
1301;DHT22;59099;48.806;9.160;2022-12-07T14:45:36;5.90;99.90
1301;DHT22;59099;48.806;9.160;2022-12-07T14:48:03;5.90;99.90
1301;DHT22;59099;48.806;9.160;2022-12-07T14:50:29;5.80;99.90
1301;DHT22;59099;48.806;9.160;2022-12-07T14:53:09;5.80;99.90
1301;DHT22;59099;48.806;9.160;2022-12-07T14:55:39;5.70;99.90
1301;DHT22;59099;48.806;9.160;2022-12-07T14:58:06;5.70;99.90
1301;DHT22;59099;48.806;9.160;2022-12-07T15:00:34;5.70;99.90
1301;DHT22;59099;48.806;9.160;2022-12-07T15:03:00;5.70;99.90
1301;DHT22;59099;48.806;9.160;2022-12-07T15:05:26;5.50;99.90
1301;DHT22;59099;48.806;9.160;2022-12-07T15:07:51;5.40;99.90
1301;DHT22;59099;48.806;9.160;2022-12-07T15:10:25;5.40;99.90
1301;DHT22;59099;48.806;9.160;2022-12-07T15:12:59;5.40;99.90
1301;DHT22;59099;48.806;9.160;2022-12-07T15:15:51;5.40;99.90
1301;DHT22;59099;48.806;9.160;2022-12-07T15:18:18;5.40;99.90
1301;DHT22;59099;48.806;9.160;2022-12-07T15:20:44;5.40;99.90
1301;DHT22;59099;48.806;9.160;2022-12-07T15:23:11;5.50;99.90
1301;DHT22;59099;48.806;9.160;2022-12-07T15:25:40;5.50;99.90
1301;DHT22;59099;48.806;9.160;2022-12-07T15:28:06;5.50;99.90
1301;DHT22;59099;48.806;9.160;2022-12-07T15:30:32;5.50;99.90
1301;DHT22;59099;48.806;9.160;2022-12-07T15:33:00;5.50;99.90
1301;DHT22;59099;48.806;9.160;2022-12-07T15:35:26;5.50;99.90
1301;DHT22;59099;48.806;9.160;2022-12-07T15:37:52;5.30;99.90
1301;DHT22;59099;48.806;9.160;2022-12-07T15:40:18;5.30;99.90
1301;DHT22;59099;48.806;9.160;2022-12-07T15:42:44;5.20;99.90
1301;DHT22;59099;48.806;9.160;2022-12-07T15:45:10;5.10;99.90
1301;DHT22;59099;48.806;9.160;2022-12-07T15:47:38;5.00;99.90
1301;DHT22;59099;48.806;9.160;2022-12-07T15:50:07;4.90;99.90
1301;DHT22;59099;48.806;9.160;2022-12-07T15:52:33;4.90;99.90
1301;DHT22;59099;48.806;9.160;2022-12-07T15:54:59;4.70;99.90
1301;DHT22;59099;48.806;9.160;2022-12-07T15:57:30;4.70;99.90
1301;DHT22;59099;48.806;9.160;2022-12-07T15:59:55;4.60;99.90
1301;DHT22;59099;48.806;9.160;2022-12-07T16:02:21;4.50;99.90
1301;DHT22;59099;48.806;9.160;2022-12-07T16:04:48;4.60;99.90
1301;DHT22;59099;48.806;9.160;2022-12-07T16:07:14;4.60;99.90
1301;DHT22;59099;48.806;9.160;2022-12-07T16:09:42;4.60;99.90
1301;DHT22;59099;48.806;9.160;2022-12-07T16:12:08;4.60;99.90
1301;DHT22;59099;48.806;9.160;2022-12-07T16:14:34;4.60;99.90
1301;DHT22;59099;48.806;9.160;2022-12-07T16:17:01;4.60;99.90
1301;DHT22;59099;48.806;9.160;2022-12-07T16:19:26;4.60;99.90
1301;DHT22;59099;48.806;9.160;2022-12-07T16:21:52;4.50;99.90
1301;DHT22;59099;48.806;9.160;2022-12-07T16:24:18;4.40;99.90
1301;DHT22;59099;48.806;9.160;2022-12-07T16:26:44;4.30;99.90
1301;DHT22;59099;48.806;9.160;2022-12-07T16:29:14;4.40;99.90
1301;DHT22;59099;48.806;9.160;2022-12-07T16:31:41;4.40;99.90
1301;DHT22;59099;48.806;9.160;2022-12-07T16:34:08;4.30;99.90
1301;DHT22;59099;48.806;9.160;2022-12-07T16:36:34;4.30;99.90
1301;DHT22;59099;48.806;9.160;2022-12-07T16:39:00;4.20;99.90
1301;DHT22;59099;48.806;9.160;2022-12-07T16:41:27;4.20;99.90
1301;DHT22;59099;48.806;9.160;2022-12-07T16:43:52;4.30;99.90
1301;DHT22;59099;48.806;9.160;2022-12-07T16:46:18;4.20;99.90
1301;DHT22;59099;48.806;9.160;2022-12-07T16:48:44;4.10;99.90
1301;DHT22;59099;48.806;9.160;2022-12-07T16:51:12;4.10;99.90
1301;DHT22;59099;48.806;9.160;2022-12-07T16:53:41;4.10;99.90
1301;DHT22;59099;48.806;9.160;2022-12-07T16:56:11;4.10;99.90
1301;DHT22;59099;48.806;9.160;2022-12-07T16:58:37;4.00;99.90
1301;DHT22;59099;48.806;9.160;2022-12-07T17:01:15;4.00;99.90
1301;DHT22;59099;48.806;9.160;2022-12-07T17:03:42;3.90;99.90
1301;DHT22;59099;48.806;9.160;2022-12-07T17:06:17;3.90;99.90
1301;DHT22;59099;48.806;9.160;2022-12-07T17:08:49;3.80;99.90
1301;DHT22;59099;48.806;9.160;2022-12-07T17:11:17;3.80;99.90
1301;DHT22;59099;48.806;9.160;2022-12-07T17:13:44;3.80;99.90
1301;DHT22;59099;48.806;9.160;2022-12-07T17:16:29;3.70;99.90
1301;DHT22;59099;48.806;9.160;2022-12-07T17:18:55;3.80;99.90
1301;DHT22;59099;48.806;9.160;2022-12-07T17:21:21;3.80;99.90
1301;DHT22;59099;48.806;9.160;2022-12-07T17:23:48;3.80;99.90
1301;DHT22;59099;48.806;9.160;2022-12-07T17:26:18;3.80;99.90
1301;DHT22;59099;48.806;9.160;2022-12-07T17:28:44;3.80;99.90
1301;DHT22;59099;48.806;9.160;2022-12-07T17:31:12;3.90;99.90
1301;DHT22;59099;48.806;9.160;2022-12-07T17:33:38;3.90;99.90
1301;DHT22;59099;48.806;9.160;2022-12-07T17:36:16;3.90;99.90
1301;DHT22;59099;48.806;9.160;2022-12-07T17:38:42;4.00;99.90
1301;DHT22;59099;48.806;9.160;2022-12-07T17:43:35;4.00;99.90
1301;DHT22;59099;48.806;9.160;2022-12-07T17:46:10;4.10;99.90
1301;DHT22;59099;48.806;9.160;2022-12-07T17:48:36;4.10;99.90
1301;DHT22;59099;48.806;9.160;2022-12-07T17:51:02;4.20;99.90
1301;DHT22;59099;48.806;9.160;2022-12-07T17:53:50;4.10;99.90
1301;DHT22;59099;48.806;9.160;2022-12-07T17:56:16;4.10;99.90
1301;DHT22;59099;48.806;9.160;2022-12-07T17:58:42;4.20;99.90
1301;DHT22;59099;48.806;9.160;2022-12-07T18:01:09;4.20;99.90
1301;DHT22;59099;48.806;9.160;2022-12-07T18:03:35;4.20;99.90
1301;DHT22;59099;48.806;9.160;2022-12-07T18:06:01;4.20;99.90
1301;DHT22;59099;48.806;9.160;2022-12-07T18:08:27;4.20;99.90
1301;DHT22;59099;48.806;9.160;2022-12-07T18:11:02;4.10;99.90
1301;DHT22;59099;48.806;9.160;2022-12-07T18:13:27;4.20;99.90
1301;DHT22;59099;48.806;9.160;2022-12-07T18:16:12;4.30;99.90
1301;DHT22;59099;48.806;9.160;2022-12-07T18:18:39;4.20;99.90
1301;DHT22;59099;48.806;9.160;2022-12-07T18:21:11;4.20;99.90
1301;DHT22;59099;48.806;9.160;2022-12-07T18:23:40;4.30;99.90
1301;DHT22;59099;48.806;9.160;2022-12-07T18:26:05;4.20;99.90